Terminal Aerodrome Forecast
Issued by NWS Paducah, KY

Home | Current Version | Previous Version | Text Only | Print | Product List | Glossary Off
Versions: 1 2 3 4 5 6 7 8 9 10 11 12 13

000
FTUS43 KPAH 291300 AAA
TAFEVV
TAF AMD
KEVV 291301Z 2913/3012 31005KT P6SM SKC
     FM291500 29009KT P6SM SCT040
     FM300000 33003KT P6SM SCT035=

USA.gov is the U.S. government's official web portal to all federal, state and local government web resources and services.